Bookmark and Share
Track history (hours):
 

Jasper S

Last reported at 2014-Apr-17 23:30 UTC. Time now 2014-Apr-18 00:27 UTC.
Position N 41°18' E 002°11'.

Length 148 m; draft 8.2 m.

Type: Cargo ship. MMSI: 305079000.

NotesDate/timePositionNaut miles runAvg speedWind from/ knotsBaromVisibWave heightAir tempDewpointWater temp
2014-Apr-17 23:30N 41°18' E 002°11'0 0.4
2014-Apr-17 22:24N 41°18' E 002°11'0 0.1
2014-Apr-17 20:24N 41°18' E 002°11'1 0.1
2014-Apr-17 14:30N 41°18' E 002°11'2311.4
2014-Apr-17 12:27N 41°01' E 001°50'1111.7
2014-Apr-17 11:33N 40°53' E 001°41'1312.7
2014-Apr-17 10:33N 40°44' E 001°29'1313.2
2014-Apr-17 09:33N 40°35' E 001°16'1313.3
2014-Apr-17 08:33N 40°25' E 001°04'1413.6
2014-Apr-17 07:32N 40°15' E 000°51'1413.7
2014-Apr-17 06:32N 40°06' E 000°39'  
2014-Apr-14 08:33N 37°55' E 000°14'  
2014-Apr-09 06:13N 37°37' E 000°18'2814.3
2014-Apr-09 04:18N 38°03' E 000°31'4114.5
2014-Apr-09 01:31N 38°40' E 000°50'3214.5
2014-Apr-08 23:20N 39°10' E 001°05'1414.2
2014-Apr-08 22:19N 39°23' E 001°12'1513.9
2014-Apr-08 21:15N 39°37' E 001°19'1014.0
2014-Apr-08 20:33N 39°46' E 001°23'1414.0
2014-Apr-08 19:33N 39°59' E 001°30'1514.6
2014-Apr-08 18:33N 40°12' E 001°37'1514.7
2014-Apr-08 17:33N 40°26' E 001°45'1414.5
2014-Apr-08 16:33N 40°40' E 001°51'1514.6
2014-Apr-08 15:33N 40°53' E 001°58'1515.3
2014-Apr-08 14:33N 41°07' E 002°05'11 1.0
2014-Apr-08 03:07N 41°18' E 002°09'2 3.3
2014-Apr-08 02:33N 41°19' E 002°11'0 0.1
2014-Apr-08 01:20N 41°19' E 002°11'  

Dump ship's entire track history

sailing weather and tide predictions

Jasper S — V2CQ4 — position and weather